THY059 LTCG-LTFM
Flight info
| Callsign | THY059 |
|---|---|
| Flight time | 1h 22m |
| Altitude | 34000 |
| Route | TOLUN UL851 KARDE UN644 INB UW702 GUMRU UT315 NUGBA |
| Aircraft | A320/M-SDE3FGHIRWY/LB1 |
Departure
| Time | 2026-05-06 11:07 |
|---|---|
| Airport | Trabzon International Airport (LTCG) |
Arrival
| Time | 2026-05-06 12:29 |
|---|---|
| Airport | İstanbul Airport (LTFM) |
| Time | Latitude | Longitude | Altitude | Speed | Heading |
|---|---|---|---|---|---|
| 2026-05-06 10:40 | 40.99565 | 39.78082 | 113 ft | 0 kts | 202° |
| 2026-05-06 10:58 | 40.99585 | 39.78094 | 115 ft | 4 kts | 200° |
| 2026-05-06 10:58 | 40.99610 | 39.78105 | 115 ft | 4 kts | 193° |
| 2026-05-06 10:58 | 40.99635 | 39.78110 | 111 ft | 2 kts | 188° |
| 2026-05-06 10:59 | 40.99640 | 39.78111 | 112 ft | 0 kts | 188° |
| 2026-05-06 11:01 | 40.99638 | 39.78111 | 112 ft | 0 kts | 186° |
| 2026-05-06 11:01 | 40.99635 | 39.78112 | 115 ft | 3 kts | 179° |
| 2026-05-06 11:01 | 40.99609 | 39.78145 | 113 ft | 7 kts | 119° |
| 2026-05-06 11:02 | 40.99586 | 39.78208 | 114 ft | 9 kts | 104° |
| 2026-05-06 11:02 | 40.99570 | 39.78294 | 112 ft | 11 kts | 108° |
| 2026-05-06 11:02 | 40.99540 | 39.78395 | 112 ft | 13 kts | 111° |
| 2026-05-06 11:02 | 40.99504 | 39.78513 | 115 ft | 15 kts | 112° |
| 2026-05-06 11:03 | 40.99462 | 39.78651 | 115 ft | 17 kts | 112° |
| 2026-05-06 11:03 | 40.99413 | 39.78808 | 114 ft | 20 kts | 112° |
| 2026-05-06 11:03 | 40.99361 | 39.78972 | 111 ft | 20 kts | 112° |
| 2026-05-06 11:03 | 40.99339 | 39.79135 | 102 ft | 14 kts | 81° |
| 2026-05-06 11:04 | 40.99374 | 39.79255 | 104 ft | 14 kts | 69° |
| 2026-05-06 11:04 | 40.99378 | 39.79384 | 106 ft | 16 kts | 107° |
| 2026-05-06 11:04 | 40.99333 | 39.79535 | 108 ft | 19 kts | 112° |
| 2026-05-06 11:04 | 40.99276 | 39.79721 | 107 ft | 25 kts | 112° |
| 2026-05-06 11:05 | 40.99206 | 39.79946 | 108 ft | 27 kts | 112° |
| 2026-05-06 11:05 | 40.99144 | 39.80150 | 103 ft | 12 kts | 111° |
| 2026-05-06 11:05 | 40.99091 | 39.80236 | 103 ft | 15 kts | 143° |
| 2026-05-06 11:05 | 40.99039 | 39.80311 | 103 ft | 10 kts | 105° |
| 2026-05-06 11:06 | 40.99096 | 39.80297 | 103 ft | 13 kts | 306° |
| 2026-05-06 11:06 | 40.99108 | 39.80259 | 103 ft | 3 kts | 292° |
| 2026-05-06 11:06 | 40.99200 | 39.79964 | 108 ft | 70 kts | 292° |
| 2026-05-06 11:06 | 40.99464 | 39.79115 | 102 ft | 127 kts | 292° |
| 2026-05-06 11:07 | 40.99849 | 39.77876 | 316 ft | 150 kts | 293° |
| 2026-05-06 11:07 | 41.00203 | 39.76650 | 1061 ft | 141 kts | 289° |
| 2026-05-06 11:07 | 41.00547 | 39.75419 | 1619 ft | 145 kts | 294° |
| 2026-05-06 11:07 | 41.00940 | 39.74130 | 2016 ft | 161 kts | 294° |
| 2026-05-06 11:08 | 41.01383 | 39.72704 | 2374 ft | 174 kts | 292° |
| 2026-05-06 11:08 | 41.01846 | 39.71163 | 2674 ft | 189 kts | 291° |
| 2026-05-06 11:08 | 41.02377 | 39.69462 | 2916 ft | 215 kts | 292° |
| 2026-05-06 11:08 | 41.03003 | 39.67522 | 3208 ft | 241 kts | 292° |
| 2026-05-06 11:09 | 41.03678 | 39.65393 | 3797 ft | 256 kts | 292° |
| 2026-05-06 11:09 | 41.04365 | 39.63199 | 4598 ft | 259 kts | 292° |
| 2026-05-06 11:09 | 41.05062 | 39.60965 | 5400 ft | 265 kts | 291° |
| 2026-05-06 11:09 | 41.05767 | 39.58689 | 6238 ft | 269 kts | 291° |
| 2026-05-06 11:10 | 41.06481 | 39.56373 | 7048 ft | 274 kts | 291° |
| 2026-05-06 11:10 | 41.07203 | 39.54021 | 7868 ft | 278 kts | 291° |
| 2026-05-06 11:10 | 41.07938 | 39.51633 | 8658 ft | 282 kts | 291° |
| 2026-05-06 11:10 | 41.08684 | 39.49208 | 9420 ft | 286 kts | 291° |
| 2026-05-06 11:11 | 41.09438 | 39.46754 | 10148 ft | 290 kts | 291° |
| 2026-05-06 11:11 | 41.10224 | 39.44192 | 10475 ft | 312 kts | 291° |
| 2026-05-06 11:11 | 41.11067 | 39.41433 | 10643 ft | 334 kts | 291° |
| 2026-05-06 11:11 | 41.11960 | 39.38504 | 11012 ft | 348 kts | 291° |
| 2026-05-06 11:12 | 41.12873 | 39.35507 | 11599 ft | 353 kts | 291° |
| 2026-05-06 11:12 | 41.13796 | 39.32475 | 12218 ft | 356 kts | 291° |
| 2026-05-06 11:12 | 41.14728 | 39.29410 | 12838 ft | 360 kts | 291° |
| 2026-05-06 11:12 | 41.15672 | 39.26315 | 13457 ft | 363 kts | 292° |
| 2026-05-06 11:13 | 41.16786 | 39.23341 | 14061 ft | 367 kts | 297° |
| 2026-05-06 11:13 | 41.17971 | 39.20329 | 14664 ft | 370 kts | 297° |
| 2026-05-06 11:13 | 41.19168 | 39.17280 | 15248 ft | 374 kts | 297° |
| 2026-05-06 11:13 | 41.20368 | 39.14209 | 15805 ft | 376 kts | 297° |
| 2026-05-06 11:14 | 41.21576 | 39.11108 | 16349 ft | 380 kts | 297° |
| 2026-05-06 11:14 | 41.22792 | 39.07981 | 16884 ft | 382 kts | 296° |
| 2026-05-06 11:14 | 41.24014 | 39.04832 | 17397 ft | 385 kts | 296° |
| 2026-05-06 11:14 | 41.25247 | 39.01657 | 17905 ft | 388 kts | 297° |
| 2026-05-06 11:15 | 41.26488 | 38.98463 | 18400 ft | 391 kts | 297° |
| 2026-05-06 11:15 | 41.27739 | 38.95235 | 18907 ft | 394 kts | 296° |
| 2026-05-06 11:15 | 41.28997 | 38.91975 | 19405 ft | 398 kts | 296° |
| 2026-05-06 11:15 | 41.30268 | 38.88686 | 19895 ft | 401 kts | 296° |
| 2026-05-06 11:16 | 41.31551 | 38.85372 | 20384 ft | 405 kts | 296° |
| 2026-05-06 11:16 | 41.32842 | 38.82030 | 20852 ft | 408 kts | 296° |
| 2026-05-06 11:16 | 41.34143 | 38.78655 | 21312 ft | 411 kts | 296° |
| 2026-05-06 11:16 | 41.35384 | 38.75212 | 21743 ft | 414 kts | 294° |
| 2026-05-06 11:17 | 41.36563 | 38.71706 | 22164 ft | 416 kts | 293° |
| 2026-05-06 11:17 | 41.37711 | 38.68152 | 22559 ft | 419 kts | 292° |
| 2026-05-06 11:17 | 41.38857 | 38.64568 | 22967 ft | 422 kts | 292° |
| 2026-05-06 11:17 | 41.40017 | 38.60962 | 23374 ft | 425 kts | 292° |
| 2026-05-06 11:18 | 41.41195 | 38.57341 | 23736 ft | 428 kts | 293° |
| 2026-05-06 11:18 | 41.42396 | 38.53694 | 24105 ft | 431 kts | 293° |
| 2026-05-06 11:18 | 41.43608 | 38.50034 | 24476 ft | 433 kts | 293° |
| 2026-05-06 11:18 | 41.44828 | 38.46357 | 24837 ft | 434 kts | 293° |
| 2026-05-06 11:19 | 41.46050 | 38.42654 | 25194 ft | 437 kts | 293° |
| 2026-05-06 11:19 | 41.47270 | 38.38939 | 25554 ft | 439 kts | 293° |
| 2026-05-06 11:19 | 41.48494 | 38.35198 | 25893 ft | 440 kts | 293° |
| 2026-05-06 11:19 | 41.49726 | 38.31447 | 26240 ft | 442 kts | 292° |
| 2026-05-06 11:20 | 41.50966 | 38.27672 | 26600 ft | 445 kts | 293° |
| 2026-05-06 11:20 | 41.52209 | 38.23885 | 26951 ft | 447 kts | 292° |
| 2026-05-06 11:20 | 41.53456 | 38.20074 | 27291 ft | 450 kts | 293° |
| 2026-05-06 11:20 | 41.54710 | 38.16245 | 27646 ft | 451 kts | 292° |
| 2026-05-06 11:21 | 41.55948 | 38.12449 | 27962 ft | 452 kts | 292° |
| 2026-05-06 11:21 | 41.57221 | 38.08525 | 28274 ft | 456 kts | 292° |
| 2026-05-06 11:21 | 41.58477 | 38.04647 | 28635 ft | 454 kts | 292° |
| 2026-05-06 11:21 | 41.59718 | 38.00824 | 29043 ft | 454 kts | 292° |
| 2026-05-06 11:22 | 41.60971 | 37.96967 | 29471 ft | 453 kts | 292° |
| 2026-05-06 11:22 | 41.62220 | 37.93110 | 29897 ft | 452 kts | 292° |
| 2026-05-06 11:22 | 41.63464 | 37.89254 | 30329 ft | 451 kts | 292° |
| 2026-05-06 11:22 | 41.64699 | 37.85412 | 30764 ft | 449 kts | 292° |
| 2026-05-06 11:23 | 41.65930 | 37.81568 | 31176 ft | 449 kts | 292° |
| 2026-05-06 11:23 | 41.67161 | 37.77734 | 31566 ft | 448 kts | 292° |
| 2026-05-06 11:23 | 41.68391 | 37.73909 | 31967 ft | 448 kts | 292° |
| 2026-05-06 11:23 | 41.69618 | 37.70082 | 32343 ft | 447 kts | 292° |
| 2026-05-06 11:24 | 41.70843 | 37.66264 | 32736 ft | 447 kts | 292° |
| 2026-05-06 11:24 | 41.72068 | 37.62445 | 33124 ft | 446 kts | 292° |
| 2026-05-06 11:24 | 41.73287 | 37.58634 | 33492 ft | 445 kts | 292° |
| 2026-05-06 11:24 | 41.74501 | 37.54826 | 33863 ft | 445 kts | 292° |
| 2026-05-06 11:25 | 41.75305 | 37.52299 | 34057 ft | 445 kts | 292° |
| 2026-05-06 11:25 | 41.77751 | 37.44619 | 34146 ft | 453 kts | 292° |
| 2026-05-06 11:26 | 41.80222 | 37.36834 | 34145 ft | 455 kts | 292° |
| 2026-05-06 11:26 | 41.82691 | 37.29022 | 34147 ft | 455 kts | 292° |
| 2026-05-06 11:27 | 41.85157 | 37.21191 | 34151 ft | 456 kts | 292° |
| 2026-05-06 11:27 | 41.87623 | 37.13357 | 34145 ft | 456 kts | 292° |
| 2026-05-06 11:28 | 41.89957 | 37.05465 | 34145 ft | 455 kts | 285° |
| 2026-05-06 11:28 | 41.90907 | 36.97097 | 34147 ft | 454 kts | 274° |
| 2026-05-06 11:29 | 41.91479 | 36.88648 | 34146 ft | 454 kts | 274° |
| 2026-05-06 11:29 | 41.92047 | 36.80198 | 34149 ft | 455 kts | 275° |
| 2026-05-06 11:30 | 41.92610 | 36.71744 | 34147 ft | 454 kts | 275° |
| 2026-05-06 11:30 | 41.93167 | 36.63289 | 34143 ft | 455 kts | 275° |
| 2026-05-06 11:31 | 41.93721 | 36.54826 | 34134 ft | 455 kts | 275° |
| 2026-05-06 11:31 | 41.94263 | 36.46401 | 34129 ft | 456 kts | 274° |
| 2026-05-06 11:32 | 41.94807 | 36.37877 | 34137 ft | 458 kts | 275° |
| 2026-05-06 11:32 | 41.95330 | 36.29400 | 34113 ft | 455 kts | 275° |
| 2026-05-06 11:33 | 41.95860 | 36.20928 | 34110 ft | 455 kts | 275° |
| 2026-05-06 11:33 | 41.96390 | 36.12434 | 34103 ft | 457 kts | 275° |
| 2026-05-06 11:34 | 41.96914 | 36.03901 | 34103 ft | 458 kts | 274° |
| 2026-05-06 11:34 | 41.97428 | 35.95359 | 34110 ft | 459 kts | 274° |
| 2026-05-06 11:35 | 41.97928 | 35.86802 | 34115 ft | 459 kts | 274° |
| 2026-05-06 11:35 | 41.98428 | 35.78243 | 34117 ft | 459 kts | 274° |
| 2026-05-06 11:36 | 41.98914 | 35.69693 | 34119 ft | 459 kts | 274° |
| 2026-05-06 11:36 | 41.99397 | 35.61146 | 34122 ft | 458 kts | 274° |
| 2026-05-06 11:37 | 41.99884 | 35.52607 | 34121 ft | 458 kts | 274° |
| 2026-05-06 11:37 | 42.00363 | 35.44046 | 34108 ft | 459 kts | 274° |
| 2026-05-06 11:38 | 42.00828 | 35.35478 | 34093 ft | 459 kts | 275° |
| 2026-05-06 11:38 | 42.01295 | 35.26965 | 34085 ft | 460 kts | 275° |
| 2026-05-06 11:39 | 42.01754 | 35.18373 | 34080 ft | 461 kts | 275° |
| 2026-05-06 11:39 | 42.02192 | 35.09759 | 34088 ft | 462 kts | 275° |
| 2026-05-06 11:40 | 42.01993 | 35.01119 | 34087 ft | 463 kts | 267° |
| 2026-05-06 11:40 | 42.01583 | 34.92475 | 34088 ft | 463 kts | 267° |
| 2026-05-06 11:41 | 42.01183 | 34.83830 | 34092 ft | 463 kts | 268° |
| 2026-05-06 11:41 | 42.00764 | 34.75199 | 34091 ft | 463 kts | 268° |
| 2026-05-06 11:42 | 42.00332 | 34.66560 | 34091 ft | 463 kts | 268° |
| 2026-05-06 11:42 | 41.99902 | 34.57925 | 34093 ft | 462 kts | 268° |
| 2026-05-06 11:43 | 41.99459 | 34.49322 | 34096 ft | 461 kts | 267° |
| 2026-05-06 11:43 | 41.99012 | 34.40743 | 34098 ft | 460 kts | 268° |
| 2026-05-06 11:44 | 41.98334 | 34.27887 | 34089 ft | 460 kts | 268° |
| 2026-05-06 11:44 | 41.97880 | 34.19368 | 34082 ft | 460 kts | 268° |
| 2026-05-06 11:45 | 41.97421 | 34.10799 | 34083 ft | 461 kts | 268° |
| 2026-05-06 11:45 | 41.96956 | 34.02207 | 34078 ft | 461 kts | 268° |
| 2026-05-06 11:46 | 41.96468 | 33.93617 | 34076 ft | 461 kts | 267° |
| 2026-05-06 11:46 | 41.95975 | 33.85033 | 34078 ft | 461 kts | 268° |
| 2026-05-06 11:47 | 41.95477 | 33.76445 | 34086 ft | 461 kts | 267° |
| 2026-05-06 11:47 | 41.94718 | 33.67880 | 34093 ft | 464 kts | 260° |
| 2026-05-06 11:48 | 41.93390 | 33.59359 | 34097 ft | 463 kts | 260° |
| 2026-05-06 11:48 | 41.92079 | 33.50959 | 34109 ft | 463 kts | 260° |
| 2026-05-06 11:49 | 41.90757 | 33.42526 | 34111 ft | 461 kts | 260° |
| 2026-05-06 11:49 | 41.89420 | 33.34111 | 34110 ft | 461 kts | 260° |
| 2026-05-06 11:50 | 41.88074 | 33.25709 | 34110 ft | 460 kts | 261° |
| 2026-05-06 11:50 | 41.86729 | 33.17322 | 34117 ft | 460 kts | 261° |
| 2026-05-06 11:51 | 41.85385 | 33.08960 | 34121 ft | 457 kts | 261° |
| 2026-05-06 11:51 | 41.84037 | 33.00626 | 34115 ft | 458 kts | 261° |
| 2026-05-06 11:52 | 41.82693 | 32.92294 | 34114 ft | 457 kts | 261° |
| 2026-05-06 11:52 | 41.81335 | 32.83976 | 34118 ft | 457 kts | 261° |
| 2026-05-06 11:53 | 41.79967 | 32.75670 | 34119 ft | 456 kts | 261° |
| 2026-05-06 11:53 | 41.78600 | 32.67372 | 34119 ft | 456 kts | 261° |
| 2026-05-06 11:54 | 41.77228 | 32.59068 | 34129 ft | 456 kts | 261° |
| 2026-05-06 11:54 | 41.75847 | 32.50777 | 34129 ft | 456 kts | 261° |
| 2026-05-06 11:55 | 41.74457 | 32.42492 | 34130 ft | 456 kts | 261° |
| 2026-05-06 11:55 | 41.73067 | 32.34206 | 34129 ft | 456 kts | 261° |
| 2026-05-06 11:56 | 41.71661 | 32.25931 | 34126 ft | 456 kts | 261° |
| 2026-05-06 11:56 | 41.70178 | 32.17664 | 34132 ft | 457 kts | 260° |
| 2026-05-06 11:57 | 41.68745 | 32.09894 | 34138 ft | 458 kts | 260° |
| 2026-05-06 11:57 | 41.67231 | 32.01617 | 34150 ft | 458 kts | 260° |
| 2026-05-06 11:58 | 41.65731 | 31.93341 | 34153 ft | 457 kts | 260° |
| 2026-05-06 11:58 | 41.64218 | 31.85076 | 34143 ft | 458 kts | 260° |
| 2026-05-06 11:59 | 41.62696 | 31.76830 | 34138 ft | 455 kts | 260° |
| 2026-05-06 11:59 | 41.61188 | 31.68625 | 34125 ft | 454 kts | 260° |
| 2026-05-06 12:00 | 41.59663 | 31.60429 | 34120 ft | 455 kts | 260° |
| 2026-05-06 12:00 | 41.58134 | 31.52242 | 34119 ft | 454 kts | 260° |
| 2026-05-06 12:01 | 41.56596 | 31.44065 | 34121 ft | 454 kts | 260° |
| 2026-05-06 12:01 | 41.55230 | 31.35859 | 34127 ft | 449 kts | 268° |
| 2026-05-06 12:02 | 41.55374 | 31.27637 | 34125 ft | 442 kts | 279° |
| 2026-05-06 12:02 | 41.55907 | 31.19526 | 34124 ft | 441 kts | 278° |
| 2026-05-06 12:03 | 41.56402 | 31.11528 | 34124 ft | 440 kts | 278° |
| 2026-05-06 12:03 | 41.56812 | 31.04988 | 34115 ft | 439 kts | 278° |
| 2026-05-06 12:04 | 41.57321 | 30.96856 | 33741 ft | 440 kts | 278° |
| 2026-05-06 12:04 | 41.57579 | 30.92743 | 32627 ft | 449 kts | 278° |
| 2026-05-06 12:04 | 41.57841 | 30.88552 | 31659 ft | 455 kts | 278° |
| 2026-05-06 12:05 | 41.58104 | 30.84327 | 30773 ft | 456 kts | 278° |
| 2026-05-06 12:05 | 41.58362 | 30.80100 | 29861 ft | 458 kts | 278° |
| 2026-05-06 12:05 | 41.58616 | 30.75851 | 29044 ft | 458 kts | 278° |
| 2026-05-06 12:05 | 41.58782 | 30.71611 | 28378 ft | 456 kts | 271° |
| 2026-05-06 12:06 | 41.58404 | 30.67451 | 28134 ft | 448 kts | 261° |
| 2026-05-06 12:06 | 41.57481 | 30.63542 | 28080 ft | 435 kts | 250° |
| 2026-05-06 12:06 | 41.56155 | 30.59949 | 27765 ft | 429 kts | 246° |
| 2026-05-06 12:06 | 41.54767 | 30.56413 | 26834 ft | 434 kts | 245° |
| 2026-05-06 12:07 | 41.53342 | 30.52834 | 26038 ft | 438 kts | 245° |
| 2026-05-06 12:07 | 41.51902 | 30.49243 | 25559 ft | 439 kts | 245° |
| 2026-05-06 12:07 | 41.50460 | 30.45659 | 25045 ft | 437 kts | 244° |
| 2026-05-06 12:07 | 41.49025 | 30.42100 | 24543 ft | 435 kts | 244° |
| 2026-05-06 12:08 | 41.47595 | 30.38554 | 24036 ft | 433 kts | 244° |
| 2026-05-06 12:08 | 41.46174 | 30.35028 | 23524 ft | 430 kts | 244° |
| 2026-05-06 12:08 | 41.44769 | 30.31532 | 23041 ft | 427 kts | 244° |
| 2026-05-06 12:08 | 41.43375 | 30.28057 | 22553 ft | 424 kts | 244° |
| 2026-05-06 12:09 | 41.41988 | 30.24606 | 22056 ft | 420 kts | 244° |
| 2026-05-06 12:09 | 41.40612 | 30.21191 | 21576 ft | 417 kts | 244° |
| 2026-05-06 12:09 | 41.39246 | 30.17801 | 21095 ft | 414 kts | 244° |
| 2026-05-06 12:09 | 41.37892 | 30.14438 | 20619 ft | 411 kts | 244° |
| 2026-05-06 12:10 | 41.36542 | 30.11099 | 20146 ft | 408 kts | 244° |
| 2026-05-06 12:10 | 41.35202 | 30.07795 | 19677 ft | 404 kts | 244° |
| 2026-05-06 12:10 | 41.33874 | 30.04516 | 19209 ft | 401 kts | 244° |
| 2026-05-06 12:10 | 41.32552 | 30.01256 | 18751 ft | 399 kts | 244° |
| 2026-05-06 12:11 | 41.31242 | 29.98031 | 18301 ft | 395 kts | 243° |
| 2026-05-06 12:11 | 41.29936 | 29.94818 | 17831 ft | 393 kts | 244° |
| 2026-05-06 12:11 | 41.28639 | 29.91633 | 17386 ft | 391 kts | 243° |
| 2026-05-06 12:11 | 41.27782 | 29.89533 | 17084 ft | 389 kts | 243° |
| 2026-05-06 12:12 | 41.26499 | 29.86381 | 16640 ft | 386 kts | 243° |
| 2026-05-06 12:12 | 41.25226 | 29.83255 | 16187 ft | 384 kts | 243° |
| 2026-05-06 12:12 | 41.23959 | 29.80143 | 15750 ft | 382 kts | 243° |
| 2026-05-06 12:12 | 41.22694 | 29.77055 | 15316 ft | 379 kts | 243° |
| 2026-05-06 12:13 | 41.21436 | 29.73988 | 14874 ft | 378 kts | 243° |
| 2026-05-06 12:13 | 41.20179 | 29.70940 | 14437 ft | 375 kts | 243° |
| 2026-05-06 12:13 | 41.18933 | 29.67910 | 14013 ft | 373 kts | 243° |
| 2026-05-06 12:13 | 41.17696 | 29.64897 | 13585 ft | 371 kts | 243° |
| 2026-05-06 12:14 | 41.16464 | 29.61900 | 13164 ft | 369 kts | 243° |
| 2026-05-06 12:14 | 41.15239 | 29.58929 | 12726 ft | 366 kts | 243° |
| 2026-05-06 12:14 | 41.14022 | 29.55972 | 12292 ft | 363 kts | 243° |
| 2026-05-06 12:14 | 41.12819 | 29.53042 | 11787 ft | 359 kts | 243° |
| 2026-05-06 12:15 | 41.11630 | 29.50144 | 11372 ft | 356 kts | 243° |
| 2026-05-06 12:15 | 41.10451 | 29.47269 | 10958 ft | 354 kts | 243° |
| 2026-05-06 12:15 | 41.09276 | 29.44414 | 10553 ft | 351 kts | 242° |
| 2026-05-06 12:15 | 41.08124 | 29.41636 | 10411 ft | 336 kts | 242° |
| 2026-05-06 12:16 | 41.07035 | 29.39018 | 10285 ft | 313 kts | 242° |
| 2026-05-06 12:16 | 41.06030 | 29.36610 | 10118 ft | 294 kts | 242° |
| 2026-05-06 12:16 | 41.05044 | 29.34250 | 9971 ft | 292 kts | 242° |
| 2026-05-06 12:16 | 41.04053 | 29.31872 | 9595 ft | 297 kts | 242° |
| 2026-05-06 12:17 | 41.03077 | 29.29514 | 9211 ft | 288 kts | 242° |
| 2026-05-06 12:17 | 41.02112 | 29.27188 | 8859 ft | 288 kts | 242° |
| 2026-05-06 12:17 | 41.01158 | 29.24896 | 8698 ft | 281 kts | 242° |
| 2026-05-06 12:17 | 41.00222 | 29.22645 | 8428 ft | 277 kts | 242° |
| 2026-05-06 12:18 | 40.99292 | 29.20417 | 8114 ft | 276 kts | 242° |
| 2026-05-06 12:18 | 40.98365 | 29.18194 | 7810 ft | 275 kts | 242° |
| 2026-05-06 12:18 | 40.97445 | 29.15986 | 7497 ft | 274 kts | 242° |
| 2026-05-06 12:18 | 40.96526 | 29.13785 | 7218 ft | 273 kts | 242° |
| 2026-05-06 12:19 | 40.95610 | 29.11597 | 6927 ft | 270 kts | 242° |
| 2026-05-06 12:19 | 40.94699 | 29.09426 | 6615 ft | 270 kts | 242° |
| 2026-05-06 12:19 | 40.93791 | 29.07261 | 6318 ft | 268 kts | 242° |
| 2026-05-06 12:19 | 40.92889 | 29.05105 | 6027 ft | 267 kts | 242° |
| 2026-05-06 12:20 | 40.91999 | 29.02972 | 5711 ft | 264 kts | 244° |
| 2026-05-06 12:20 | 40.91418 | 29.00689 | 5444 ft | 261 kts | 262° |
| 2026-05-06 12:20 | 40.91381 | 28.98284 | 5119 ft | 263 kts | 277° |
| 2026-05-06 12:20 | 40.91603 | 28.95883 | 4820 ft | 262 kts | 277° |
| 2026-05-06 12:21 | 40.91813 | 28.93496 | 4587 ft | 259 kts | 277° |
| 2026-05-06 12:21 | 40.92011 | 28.91170 | 4463 ft | 251 kts | 277° |
| 2026-05-06 12:21 | 40.92205 | 28.88922 | 4336 ft | 242 kts | 277° |
| 2026-05-06 12:21 | 40.92393 | 28.86752 | 4183 ft | 234 kts | 277° |
| 2026-05-06 12:22 | 40.92581 | 28.84634 | 4053 ft | 231 kts | 278° |
| 2026-05-06 12:22 | 40.92771 | 28.82526 | 4006 ft | 231 kts | 278° |
| 2026-05-06 12:22 | 40.93219 | 28.80506 | 3997 ft | 230 kts | 298° |
| 2026-05-06 12:22 | 40.94163 | 28.78842 | 4019 ft | 231 kts | 318° |
| 2026-05-06 12:23 | 40.95488 | 28.77655 | 4017 ft | 230 kts | 330° |
| 2026-05-06 12:23 | 40.96887 | 28.76648 | 4012 ft | 224 kts | 339° |
| 2026-05-06 12:23 | 40.98373 | 28.76203 | 4005 ft | 218 kts | 357° |
| 2026-05-06 12:23 | 40.99892 | 28.76172 | 4029 ft | 219 kts | 359° |
| 2026-05-06 12:24 | 41.01411 | 28.76141 | 4021 ft | 218 kts | 358° |
| 2026-05-06 12:24 | 41.02932 | 28.76111 | 4001 ft | 219 kts | 359° |
| 2026-05-06 12:24 | 41.04451 | 28.76082 | 4008 ft | 219 kts | 358° |
| 2026-05-06 12:24 | 41.05974 | 28.76055 | 4008 ft | 219 kts | 359° |
| 2026-05-06 12:25 | 41.07503 | 28.76022 | 3889 ft | 221 kts | 359° |
| 2026-05-06 12:25 | 41.09043 | 28.75994 | 3642 ft | 221 kts | 359° |
| 2026-05-06 12:25 | 41.10576 | 28.75966 | 3359 ft | 221 kts | 358° |
| 2026-05-06 12:25 | 41.12109 | 28.75935 | 3076 ft | 220 kts | 359° |
| 2026-05-06 12:26 | 41.13624 | 28.75909 | 2787 ft | 216 kts | 358° |
| 2026-05-06 12:26 | 41.15087 | 28.75881 | 2517 ft | 204 kts | 358° |
| 2026-05-06 12:26 | 41.16459 | 28.75856 | 2262 ft | 188 kts | 360° |
| 2026-05-06 12:26 | 41.17690 | 28.75831 | 2012 ft | 170 kts | 2° |
| 2026-05-06 12:27 | 41.18806 | 28.75806 | 1795 ft | 151 kts | 1° |
| 2026-05-06 12:27 | 41.19810 | 28.75748 | 1557 ft | 140 kts | 2° |
| 2026-05-06 12:27 | 41.20771 | 28.75732 | 1356 ft | 137 kts | 4° |
| 2026-05-06 12:27 | 41.21717 | 28.75720 | 1193 ft | 136 kts | 4° |
| 2026-05-06 12:28 | 41.22660 | 28.75704 | 1048 ft | 136 kts | 4° |
| 2026-05-06 12:28 | 41.23606 | 28.75691 | 858 ft | 136 kts | 2° |
| 2026-05-06 12:28 | 41.24545 | 28.75677 | 677 ft | 135 kts | 4° |
| 2026-05-06 12:28 | 41.25489 | 28.75672 | 525 ft | 136 kts | 3° |
| 2026-05-06 12:29 | 41.26421 | 28.75661 | 357 ft | 136 kts | 1° |
| 2026-05-06 12:29 | 41.27268 | 28.75653 | 331 ft | 103 kts | 359° |
| 2026-05-06 12:29 | 41.27829 | 28.75638 | 332 ft | 60 kts | 356° |
| 2026-05-06 12:29 | 41.28068 | 28.75557 | 331 ft | 29 kts | 329° |
| 2026-05-06 12:30 | 41.28158 | 28.75455 | 331 ft | 14 kts | 296° |
| 2026-05-06 12:30 | 41.28118 | 28.75358 | 332 ft | 14 kts | 201° |
| 2026-05-06 12:30 | 41.28013 | 28.75354 | 332 ft | 16 kts | 178° |
| 2026-05-06 12:30 | 41.27893 | 28.75357 | 332 ft | 18 kts | 179° |
| 2026-05-06 12:31 | 41.27758 | 28.75361 | 332 ft | 21 kts | 178° |
| 2026-05-06 12:31 | 41.27608 | 28.75364 | 334 ft | 22 kts | 181° |
| 2026-05-06 12:31 | 41.27446 | 28.75362 | 331 ft | 25 kts | 180° |
| 2026-05-06 12:31 | 41.27287 | 28.75370 | 333 ft | 23 kts | 180° |
| 2026-05-06 12:32 | 41.27157 | 28.75374 | 334 ft | 13 kts | 179° |
| 2026-05-06 12:32 | 41.27090 | 28.75359 | 333 ft | 10 kts | 208° |
| 2026-05-06 12:32 | 41.27064 | 28.75279 | 334 ft | 11 kts | 273° |
| 2026-05-06 12:32 | 41.27059 | 28.75176 | 334 ft | 11 kts | 250° |
| 2026-05-06 12:33 | 41.27005 | 28.75143 | 333 ft | 9 kts | 183° |
| 2026-05-06 12:33 | 41.26938 | 28.75157 | 334 ft | 10 kts | 158° |
| 2026-05-06 12:33 | 41.26893 | 28.75209 | 330 ft | 8 kts | 130° |
| 2026-05-06 12:33 | 41.26852 | 28.75254 | 332 ft | 8 kts | 153° |
| 2026-05-06 12:34 | 41.26769 | 28.75265 | 330 ft | 14 kts | 179° |
| 2026-05-06 12:34 | 41.26664 | 28.75269 | 331 ft | 16 kts | 178° |
| 2026-05-06 12:34 | 41.26543 | 28.75273 | 331 ft | 19 kts | 178° |
| 2026-05-06 12:34 | 41.26418 | 28.75274 | 332 ft | 17 kts | 178° |
| 2026-05-06 12:35 | 41.26299 | 28.75276 | 333 ft | 18 kts | 179° |
| 2026-05-06 12:35 | 41.26174 | 28.75280 | 333 ft | 18 kts | 179° |
| 2026-05-06 12:35 | 41.26057 | 28.75283 | 331 ft | 15 kts | 179° |
| 2026-05-06 12:35 | 41.25953 | 28.75286 | 332 ft | 15 kts | 179° |
| 2026-05-06 12:36 | 41.25854 | 28.75288 | 332 ft | 14 kts | 179° |
| 2026-05-06 12:36 | 41.25753 | 28.75289 | 332 ft | 15 kts | 179° |
| 2026-05-06 12:36 | 41.25678 | 28.75284 | 330 ft | 9 kts | 201° |
| 2026-05-06 12:36 | 41.25650 | 28.75210 | 331 ft | 10 kts | 268° |
| 2026-05-06 12:37 | 41.25648 | 28.75120 | 333 ft | 10 kts | 268° |
| 2026-05-06 12:37 | 41.25660 | 28.75061 | 330 ft | 7 kts | 320° |
| 2026-05-06 12:37 | 41.25705 | 28.75044 | 330 ft | 7 kts | 358° |
| 2026-05-06 12:37 | 41.25739 | 28.75043 | 334 ft | 0 kts | 359° |